Tiempo atmosférico en la estación meteorológica de Coria, Cáceres (313 m.)



Fecha
DESCASC
Temp. máxima en grados centígrados (hora)
DESCASC
Temp. mínima en grados centígrados (hora)
DESCASC
Temp. media en grados centígrados
DESCASC
Racha de viento máxima en m/sg (hora)
DESCASC
Velocidad máxima media en intervalos de 10 minutos(hora)
DESCASC
Precipitaciones diarias en mm
DESCASC
Precipitaciones de 00:00 a 06:00 en mm
DESCASC
Precipitaciones de 06:00 a 12:00 en mm
DESCASC
Precipitaciones de 12:00 a 18:00 en mm
DESCASC
Precipitaciones de 18:00 a 24:00 en mm
DESCASC
19-09-2019 32.7 (17:00) 18.3 (08:50) 25.5 7.22 (21:20) 3.06 (12:00) 0 0 0 0 0
18-09-2019 31.8 (17:20) 16.7 (05:50) 24.3 6.67 (12:40) 4.17 (12:10) 0 0 0 0 0
17-09-2019 32.6 (17:10) 19.5 (00:00) 26 -- (--) -- (--) 0 0 0 0 0
16-09-2019 28.7 (15:50) 20.3 (00:00) 24.5 9.72 (11:10) 5 (10:40) 0 0 0 0 0
15-09-2019 29.8 (17:30) 16.6 (00:00) 23.2 8.61 (14:10) 4.72 (14:10) 0 0 0 0 0
14-09-2019 26.4 (14:00) 18.6 (00:00) 22.5 -- (--) -- (--) 0 0 0 0 0
13-09-2019 29.7 (14:50) 18.8 (00:00) 24.3 -- (--) -- (--) 0 0 0 0 0
12-09-2019 32.6 (17:40) 15.3 (00:00) 23.9 11.67 (13:50) 6.94 (19:20) 0 0 0 0 0
11-09-2019 29.3 (17:30) 17.1 (00:00) 23.2 -- (--) -- (--) 0 0 0 0 0
10-09-2019 26.3 (18:30) 15.2 (08:30) 20.7 16.94 (18:20) 6.94 (01:30) 0 0 0 0 0
09-09-2019 32.2 (15:40) 15.9 (08:30) 24.1 12.5 (17:30) 7.78 (17:30) 0 0 0 0 0
08-09-2019 33.2 (18:40) 16.5 (00:00) 24.9 8.06 (10:30) 4.44 (11:10) 0 0 0 0 0
07-09-2019 32.5 (18:20) 14.3 (00:00) 23.4 12.22 (00:20) 6.11 (00:20) 0 0 0 0 0
06-09-2019 31.1 (17:50) 15.9 (00:00) 23.5 10.56 (23:59) 5.28 (13:30) 0 0 0 0 0
05-09-2019 33.4 (17:00) 21.5 (00:00) 27.5 12.78 (07:10) 5.83 (08:10) 0 0 0 0 0
04-09-2019 37.5 (17:10) 19.6 (00:00) 28.6 12.5 (18:10) 7.22 (19:10) 0 0 0 0 0
03-09-2019 37.8 (19:00) 20.5 (00:00) 29.1 9.44 (13:40) 3.89 (12:00) 0 0 0 0 0
02-09-2019 36.5 (18:20) 20.7 (00:00) 28.6 10 (12:50) 5 (12:30) 0 0 0 0 0
01-09-2019 36.3 (16:10) 20.4 (00:00) 28.3 7.5 (17:50) 4.44 (16:10) 0 0 0 0 0
31-08-2019 37.4 (17:50) 23.1 (00:00) 30.3 8.61 (20:50) 4.72 (10:40) 0 0 0 0 0
30-08-2019 37.5 (18:30) 19.8 (00:00) 28.6 8.33 (23:59) 3.89 (23:59) 0 0 0 0 0
29-08-2019 37.1 (18:30) 19.1 (00:00) 28.1 7.22 (18:10) 3.89 (16:20) 0 0 0 0 0
28-08-2019 34.8 (18:50) 18.7 (00:00) 26.8 6.67 (14:30) 3.06 (01:00) 0 0 0 0 0
27-08-2019 32.4 (17:40) 17.9 (00:00) 25.2 6.94 (15:50) 3.89 (05:00) 0 0 0 0 0
26-08-2019 29.2 (18:10) 17.5 (00:00) 23.4 11.67 (00:20) 6.39 (20:00) 4 1.4 2.6 0 0
25-08-2019 36.4 (16:00) 21.6 (00:00) 29 11.67 (20:50) 6.11 (11:50) 0 0 0 0 0
24-08-2019 39 (18:10) 20.3 (00:00) 29.6 9.44 (10:30) 5.83 (11:20) 0 0 0 0 0
23-08-2019 37.6 (17:30) 23 (00:00) 30.3 11.11 (10:40) 6.67 (11:00) 0 0 0 0 0

Gráficas

Temp. máximas Temp. mínimas Temp. medias Precipitaciones Rachas de viento máximas Velocidades máximas media en intervalos de 10 minutos

Datos horarios

Fecha y hora oficial Temperatura (ºC) Velocidad del viento (km/h) Dirección del viento Racha (km/h) Dirección de racha Precipitación (mm) Presión (hPa) Tendencia (hPa) Humedad (%)
2019-09-21 23:00:00 18.7 6 Oeste 23 Este 7.8 974.7 0.1 98
2019-09-21 22:00:00 17.7 17 Este 29 Este 1 974.3 -0.3 97
2019-09-21 21:00:00 18.5 10 Este 20 Este 2 974.1 -1.1 97
2019-09-21 20:00:00 18.2 12 Este 33 Este 0.8 974.6 -0.8 97
2019-09-21 19:00:00 18 19 Este 32 Este 0 974.6 -1.2 96
2019-09-21 18:00:00 18.5 17 Este 26 Este 0 975.2 -1.1 96
2019-09-21 17:00:00 17.9 15 Este 23 Este 1.6 975.4 -1.2 97
2019-09-21 16:00:00 17.3 14 Este 31 Este 3.8 975.8 -1.1 96
2019-09-21 15:00:00 17.6 15 Sudeste 29 Sudeste 0 976.3 -0.3 93
2019-09-21 14:00:00 17.3 14 Sudeste 28 Sudeste 0.2 976.6 0.1 93
2019-09-21 13:00:00 16.7 12 Este 33 Sudeste 2 976.9 0.7 94
2019-09-21 12:00:00 17.6 13 Este 24 Este 0.8 976.6 0.6 96
2019-09-21 11:00:00 17.3 15 Este 26 Este 1 976.5 0.8 95
2019-09-21 10:00:00 17.1 12 Este 21 Este 0.8 976.2 0.7 93
2019-09-21 09:00:00 17 13 Este 20 Este 2 976 0.4 92
2019-09-21 08:00:00 18.1 8 Este 22 Sudeste 0 975.7 -0.2 78
2019-09-21 07:00:00 18.5 10 Este 15 Este 0 975.5 -0.8 67
2019-09-21 06:00:00 18.7 8 Este 10 Este 0 975.6 -1 62
2019-09-21 05:00:00 18.6 0 Calma 9 Este 0 975.9 -0.7 62
2019-09-21 04:00:00 18.7 6 Este 11 Este 0 976.3 -0.5 60
2019-09-21 03:00:00 18.9 7 Este 11 Este 0 976.6 -0.3 62
2019-09-21 02:00:00 19 3 Sudeste 6 Sur 0 976.6 -0.3 62
2019-09-21 01:00:00 19.3 3 Sudeste 8 Este 0 976.8 0.1 61
2019-09-21 00:00:00 19.2 3 Este 6 Oeste 0 976.9 0.6 60
2019-09-20 23:00:00 20.1 4 Oeste 10 Oeste 0 976.9 1.4 55
2019-09-20 22:00:00 20.7 6 Oeste 13 Oeste 0 976.7 0.8 50
2019-09-20 21:00:00 21.6 8 Oeste 25 Oeste 0 976.3 0.5 51
2019-09-20 20:00:00 24.3 15 Oeste 29 Oeste 0 975.5 -0.4 42
2019-09-20 19:00:00 25.1 11 Oeste 36 Oeste 0 975.9 -0.4 42
2019-09-20 18:00:00 27.2 16 Sudoeste 37 Sudoeste 0 975.8 -0.6 36
2019-09-20 17:00:00 28.1 12 Sur 35 Sudeste 0 975.9 -1.1 28
2019-09-20 16:00:00 27.9 20 Sudeste 37 Sudeste 0 976.3 -1.3 27
2019-09-20 15:00:00 28.9 15 Sur 31 Este 0 976.4 -1.9 26
2019-09-20 14:00:00 28.6 17 Sudeste 36 Sudeste 0 977 -1.5 29
2019-09-20 13:00:00 25.9 6 Este 14 Este 0 977.6 -0.6 41
2019-09-20 12:00:00 25.1 4 Sudeste 9 Sudeste 0 978.3 0.4 44
2019-09-20 11:00:00 21.6 4 Sudoeste 12 Oeste 0 978.5 0.8 57
2019-09-20 10:00:00 19.9 2 Sur 12 Este 0 978.2 1 64
2019-09-20 09:00:00 18.4 10 Este 16 Este 0 977.9 0.9 70
2019-09-20 08:00:00 18 9 Este 13 Este 0 977.7 0.6 69
2019-09-20 07:00:00 18.3 5 Este 11 Este 0 977.2 -0.1 67
2019-09-20 06:00:00 18.9 3 Sudeste 6 Noroeste 0 977 -0.3 63
2019-09-20 05:00:00 19.7 5 Noroeste 10 Noroeste 0 977.1 -0.5 61
2019-09-20 04:00:00 20.5 3 Oeste 12 Oeste 0 977.3 -0.6 54
2019-09-20 03:00:00 21 2 Nordeste 12 Sudoeste 0 977.3 -0.8 53
2019-09-20 02:00:00 21.7 4 Oeste 10 Oeste 0 977.6 -0.5 52
2019-09-20 01:00:00 22.8 3 Oeste 11 Oeste 0 977.9 0.2 45
2019-09-20 00:00:00 23.1 5 Oeste 18 Noroeste 0 978.1 1 44
2019-09-19 23:00:00 24.4 10 Oeste 19 Oeste 0 978.1 1.2 39
2019-09-19 22:00:00 25.3 8 Oeste 26 Sudoeste 0 977.7 0.9 35
2019-09-19 21:00:00 27.4 6 Sur 9 Sudoeste 0 977.1 0 30
2019-09-19 20:00:00 29.4 5 Sudoeste 12 Sudeste 0 976.9 -0.6 27
2019-09-19 19:00:00 31.8 3 Sur 15 Oeste 0 976.8 -1.2 23
2019-09-19 18:00:00 30.4 2 Sur 18 Sudoeste 0 977.1 -1.8 28
2019-09-19 17:00:00 32.6 5 Sudoeste 15 Sudoeste 0 977.5 -2 25
2019-09-19 16:00:00 31.4 5 Sudoeste 20 Oeste 0 978 -2.1 28
2019-09-19 15:00:00 30.4 5 Sudoeste 19 Sudeste 0 978.9 -1.5 31
2019-09-19 14:00:00 29.4 11 Sudeste 23 Sudeste 0 979.5 -0.8 33
2019-09-19 13:00:00 27.4 6 Sudeste 19 Sudeste 0 980.1 0.1 39
2019-09-19 12:00:00 25.7 11 Este 18 Sudeste 0 980.4 0.7 46
2019-09-19 11:00:00 23.5 6 Este 11 Este 0 980.3 1.1 53
2019-09-19 10:00:00 21 4 Este 8 Este 0 980 1 62
2019-09-19 09:00:00 18.4 4 Norte 14 Norte 0 979.7 0.9 71
2019-09-19 08:00:00 18.7 10 Noroeste 17 Norte 0 979.2 0.3 70
2019-09-19 07:00:00 18.7 3 Noroeste 7 Oeste 0 979 -0.1 65
2019-09-19 06:00:00 18.9 4 Noroeste 8 Oeste 0 978.8 -0.6 64
2019-09-19 05:00:00 19.7 5 Nordeste 7 Este 0 978.9 -0.6 63
2019-09-19 04:00:00 19.9 0 Calma 9 Oeste 0 979.1 -0.3 63
2019-09-19 03:00:00 20.5 3 Sudeste 5 Sudoeste 0 979.4 0.2 62
2019-09-19 02:00:00 21.7 4 Sudeste 11 Noroeste 0 979.5 0.4 54
2019-09-19 01:00:00 22.1 4 Norte 14 Sudeste 0 979.4 0.7 54
2019-09-19 00:00:00 24.1 6 Norte 10 Noroeste 0 979.2 0.9 46
2019-09-18 23:00:00 24.4 5 Oeste 10 Este 0 979.1 1.1 42
2019-09-18 22:00:00 25.4 9 Este 13 Este 0 978.7 0.9 44
2019-09-18 21:00:00 27.4 6 Nordeste 9 Este 0 978.3 0.2 35
2019-09-18 20:00:00 29.8 4 Este 9 Sudeste 0 978 -0.4 29
2019-09-18 19:00:00 30.8 5 Sur 16 Sur 0 977.8 -1.2 26
2019-09-18 18:00:00 31.5 6 Sur 14 Sudoeste 0 978.1 -1.5 27
2019-09-18 17:00:00 31.2 5 Sudeste 19 Sudeste 0 978.4 -1.6 29
2019-09-18 16:00:00 30.5 4 Nordeste 18 Oeste 0 979 -1.5 31
2019-09-18 15:00:00 29.4 10 Sudeste 21 Este 0 979.6 -0.8 32
2019-09-18 14:00:00 27.9 9 Este 24 Este 0 980 -0.5 35
2019-09-18 13:00:00 26.3 9 Este 24 Sudeste 0 980.5 0.2 41
2019-09-18 12:00:00 23.9 14 Este 24 Este 0 980.4 0.7 49
2019-09-18 11:00:00 22.3 11 Sudeste 17 Sudeste 0 980.5 1.4 51
2019-09-18 10:00:00 19.7 5 Este 15 Nordeste 0 980.3 1.5 59
2019-09-18 09:00:00 17.4 7 Este 16 Este 0 979.7 0.9 69
2019-09-18 08:00:00 16.8 8 Este 15 Este 0 979.1 0.5 72
2019-09-18 07:00:00 16.8 6 Este 13 Nordeste 0 978.8 -0.1 71
2019-09-18 06:00:00 17 7 Nordeste 12 Este 0 978.8 -0.1 72
2019-09-18 05:00:00 17.2 8 Este 15 Este 0 978.6 -0.3 72
2019-09-18 04:00:00 17.2 12 Este 15 Este 0 978.9 -0.4 73
2019-09-18 03:00:00 17.8 3 Nordeste 14 Norte 0 978.9 -0.5 68
2019-09-18 02:00:00 18.7 4 Norte 15 Norte 0 978.9 -0.3 62
2019-09-18 01:00:00 19.1 10 Norte 17 Este 0 979.3 0.6 64
2019-09-18 00:00:00 19.8 13 Este 29 Este 0 979.4 1 63
2019-09-17 23:00:00 19.6 21 Este 35 Este 0 979.2 2.1 66
2019-09-17 22:00:00 19.8 11 Este 24 Este 0 978.7 1.1 62
2019-09-17 21:00:00 20.5 4 Sudeste 22 Nordeste 0 978.4 0.9 62
2019-09-15 18:00:00 28.5 5 Este 26 Sur 0 980.4 -1.5 34
2019-09-15 17:00:00 29.5 5 Sudoeste 21 Sudeste 0 980.6 -1.7 31
2019-09-15 16:00:00 28.6 6 Este 24 Este 0 981.2 -1.7 36
2019-09-15 15:00:00 27.7 13 Este 31 Este 0 981.9 -1.5 39
2019-09-15 14:00:00 26.8 14 Este 30 Este 0 982.3 -1 43
2019-09-15 13:00:00 25.4 14 Este 28 Este 0 982.9 -0.2 52
2019-09-15 12:00:00 23.6 16 Este 27 Sudeste 0 983.4 0.7 59
2019-09-15 11:00:00 22.9 8 Este 15 Nordeste 0 983.3 0.8 60
2019-09-15 10:00:00 20.1 5 Sudeste 11 Este 0 983.1 0.9 69
2019-09-15 09:00:00 17.6 4 Este 10 Noroeste 0 982.7 0.1 78
2019-09-15 08:00:00 16.7 5 Norte 11 Este 0 982.5 0 81
2019-09-15 07:00:00 18 3 Sudeste 14 Nordeste 0 982.2 -1.1 73
2019-09-15 06:00:00 17.6 4 Este 15 Norte 0 982.6 -0.6 75
2019-09-15 05:00:00 18.8 3 Este 21 Este 0 982.5 -1 72
2019-09-15 04:00:00 19.2 13 Este 24 Este 0 983.3 -0.5 69
2019-09-15 03:00:00 19.6 9 Este 19 Nordeste 0 983.2 -0.7 65
2019-09-15 02:00:00 19.5 10 Este 20 Este 0 983.5 -0.4 65
2019-09-15 01:00:00 19.7 9 Este 24 Este 0 983.8 0.2 64
2019-09-15 00:00:00 20.6 14 Este 27 Este 0 983.9 0.7 60
2019-09-14 23:00:00 20.9 15 Este 28 Este 0 983.9 1.1 58
2019-09-14 22:00:00 21.6 17 Este -- -- 0 983.6 1 55
2019-09-14 21:00:00 22.4 14 Este 29 Este 0 983.2 0.7 53
2019-09-14 20:00:00 23.1 14 Este -- -- 0 982.8 0.3 50
2019-09-14 19:00:00 24.2 18 Este -- -- 0 982.6 -0.4 44
2019-09-14 18:00:00 24.5 -- -- -- -- 0 982.5 -1.3 41
2019-09-14 17:00:00 23.5 8 Este 22 Este 0 982.5 -1.7 53
2019-09-14 16:00:00 23.3 14 Este -- -- 0 983 -1.7 50
2019-09-14 15:00:00 23.9 -- -- -- -- 0 983.8 -0.9 46
2019-09-14 14:00:00 26 -- -- -- -- 0 984.2 -0.4 39
2019-09-14 13:00:00 23.9 -- -- -- -- 0 984.7 -0.1 44
2019-09-14 12:00:00 25.5 -- -- -- -- 0 984.7 0.1 41
2019-09-14 11:00:00 24.3 -- -- -- -- 0 984.6 0.3 45
2019-09-14 10:00:00 22.5 12 Este 26 Este 0 984.8 0.5 50
2019-09-14 09:00:00 19.2 3 Sudeste 11 Este 0 984.6 0 60
2019-09-14 08:00:00 18.8 7 Este 21 Nordeste 0 984.3 -0.4 62
2019-09-14 07:00:00 19.9 8 Nordeste 31 Este 0 984.3 -0.8 59
2019-09-14 06:00:00 19.8 6 Este 17 Nordeste 0 984.6 -0.9 61
2019-09-14 05:00:00 19.8 5 Nordeste 16 Nordeste 0 984.7 -1.1 59
2019-09-14 04:00:00 19.8 6 Nordeste 23 Este 0 985.1 -0.9 64
2019-09-14 03:00:00 19.8 8 Este 14 Este 0 985.5 -0.8 61
2019-09-14 02:00:00 20 9 Este 31 Este 0 985.8 -0.1 59
2019-09-14 01:00:00 20.5 16 Este -- -- 0 986 0.5 58
2019-09-14 00:00:00 21.4 20 Este -- -- 0 986.3 1.1 55
2019-09-13 23:00:00 21.5 16 Este -- -- 0 985.9 1 51
2019-09-13 22:00:00 20.9 9 Este 19 Este 0 985.5 0.5 52
2019-09-13 21:00:00 21.7 11 Este 35 Este 0 985.2 0.4 49
2019-09-13 20:00:00 22.8 17 Este -- -- 0 984.9 0.1 45
2019-09-13 19:00:00 23.5 -- -- -- -- 0 985 0.3 41
2019-09-13 18:00:00 23.6 -- -- -- -- 0 984.8 -0.2 40
2019-09-13 17:00:00 24.4 -- -- -- -- 0 984.8 -0.5 38
2019-09-13 16:00:00 28.4 -- -- -- -- 0 984.7 -1 26
2019-09-13 15:00:00 28.9 -- -- -- -- 0 985 -1.4 25
2019-09-13 14:00:00 29.1 27 Este 44 Sudeste 0 985.3 -1.2 25
2019-09-13 13:00:00 27.5 15 Sudeste 26 Sudeste 0 985.7 -1 28
2019-09-13 12:00:00 27.2 10 Este 33 Este 0 986.4 -0.2 30
2019-09-13 11:00:00 24.6 9 Sudeste 18 Nordeste 0 986.5 -0.3 41
2019-09-13 10:00:00 22.4 10 Este 18 Este 0 986.7 -0.2 39
2019-09-13 09:00:00 19.3 4 Este 19 Nordeste 0 986.6 0 50
2019-09-13 08:00:00 21 6 Nordeste 26 Este 0 986.8 -0.2 44
2019-09-13 07:00:00 21.6 10 Este 20 Nordeste 0 986.9 -0.7 43
2019-09-13 06:00:00 22.3 10 Este 21 Este 0 986.6 -1.3 39
2019-09-13 05:00:00 21.5 8 Este 27 Este 0 987 -0.6 45
2019-09-13 04:00:00 22 9 Este 17 Este 0 987.6 -0.3 45
2019-09-13 03:00:00 21 3 Noroeste 7 Este 0 987.9 0.1 47
2019-09-13 02:00:00 22.7 5 Norte 14 Norte 0 987.6 0 42
2019-09-13 01:00:00 23 3 Nordeste 15 Este 0 987.9 0.9 42
2019-09-13 00:00:00 23.8 10 Este 19 Este 0 987.8 1.2 40
2019-09-12 23:00:00 24.7 13 Este 21 Este 0 987.6 1.3 37
2019-09-12 22:00:00 25.1 10 Este 23 Este 0 987 0.9 37
2019-09-12 21:00:00 27 18 Este 29 Este 0 986.6 0.6 32
2019-09-12 20:00:00 29.1 19 Este 39 Este 0 986.3 0 27
2019-09-12 19:00:00 31.6 16 Este 32 Sudeste 0 986.1 -0.8 23
2019-09-12 18:00:00 31.9 19 Este 32 Sudeste 0 986 -1.8 22
2019-09-12 17:00:00 32.1 13 Este -- -- 0 986.3 -2.2 21
2019-09-12 16:00:00 31.5 18 Sudeste 33 Sudeste 0 986.9 -2.4 23
2019-09-12 15:00:00 30.5 15 Este -- -- 0 987.8 -2 23
2019-09-12 14:00:00 29.3 23 Este 42 Este 0 988.5 -0.9 25
2019-09-12 13:00:00 27.6 17 Este 33 Este 0 989.3 0.5 27
2019-09-12 12:00:00 25.6 15 Este 28 Este 0 989.8 1.4 31
2019-09-12 11:00:00 22.5 12 Sudeste 22 Este 0 989.4 1 39
2019-09-12 10:00:00 19.7 4 Sudeste 12 Sudeste 0 988.8 0.9 48
2019-09-12 09:00:00 16.4 4 Norte 13 Noroeste 0 988.4 0.6 57
2019-09-12 08:00:00 15.6 5 Este 15 Este 0 988.4 0.7 59
2019-09-12 07:00:00 17.7 6 Este 19 Norte 0 987.9 0.6 50
2019-09-12 06:00:00 16.8 2 Oeste 6 Oeste 0 987.8 0.7 56
2019-09-12 05:00:00 19 2 Sur 22 Nordeste 0 987.7 0.7 46
2019-09-12 04:00:00 19.8 3 Sudeste 26 Nordeste 0 987.3 0.9 43
2019-09-12 03:00:00 21.7 12 Nordeste 32 Nordeste 0 987.1 0.7 36
2019-09-12 02:00:00 21.6 10 Este 35 Norte 0 987 1 37
2019-09-12 01:00:00 22.6 20 Norte 39 Norte 0 986.4 1.2 34
2019-09-12 00:00:00 23.5 20 Nordeste 42 Nordeste 0 986.4 2 31
2019-09-11 23:00:00 24 15 Nordeste 40 Norte 0 986 2.2 30
2019-09-11 22:00:00 24.6 17 Nordeste 39 Nordeste 0 985.2 1.8 28
2019-09-11 21:00:00 25.4 15 Nordeste 37 Nordeste 0 984.4 1 27
2019-09-11 20:00:00 27.2 16 Nordeste 42 Nordeste 0 983.8 0.2 23
2019-09-11 19:00:00 28.1 18 Nordeste 42 Norte 0 983.4 -0.6 22
2019-09-11 18:00:00 29.1 15 Nordeste 43 Nordeste 0 983.4 -1.2 21
2019-09-11 17:00:00 28.8 20 Nordeste 43 Nordeste 0 983.6 -1.6 21
2019-09-11 16:00:00 28.3 14 Nordeste 37 Este 0 984 -1.7 22
2019-09-11 15:00:00 27.4 19 Este 40 Norte 0 984.6 -0.9 22
2019-09-11 14:00:00 26.2 17 Nordeste -- -- 0 985.2 0.1 24
2019-09-11 13:00:00 24.2 25 Nordeste -- -- 0 985.7 0.7 27
2019-09-11 12:00:00 23 -- -- -- -- 0 985.5 0.4 30
2019-09-11 11:00:00 21.4 26 Nordeste -- -- 0 985.1 0.6 33
2019-09-11 10:00:00 20.1 -- -- -- -- 0 985 0.4 35
2019-09-11 09:00:00 18.4 23 Nordeste -- -- 0 985.1 0.7 40
2019-09-11 08:00:00 17.4 25 Nordeste 55 Norte 0 984.5 -0.2 44
2019-09-11 07:00:00 17.3 17 Nordeste 53 Nordeste 0 984.6 0.1 45
2019-09-11 06:00:00 17.4 19 Norte 44 Nordeste 0 984.4 -0.2 46
2019-09-11 05:00:00 17.4 15 Nordeste 44 Nordeste 0 984.7 0.3 47
2019-09-11 04:00:00 17.9 12 Nordeste 27 Norte 0 984.5 0.8 44
2019-09-11 03:00:00 18.3 7 Norte 28 Nordeste 0 984.6 1.1 38
2019-09-11 02:00:00 18.4 8 Este 34 Norte 0 984.4 1.3 35
2019-09-11 01:00:00 17.8 12 Norte 21 Norte 0 983.7 1.5 39
2019-09-11 00:00:00 19.8 12 Norte 26 Noroeste 0 983.5 2.4 33
2019-09-10 23:00:00 20.2 13 Noroeste 27 Noroeste 0 983.1 2.3 30
2019-09-10 22:00:00 20.2 14 Noroeste 26 Noroeste 0 982.2 1.8 29
2019-09-10 21:00:00 21.9 17 Noroeste 34 Noroeste 0 981.1 0.6 24
2019-09-10 20:00:00 24.6 19 Noroeste 40 Noroeste 0 980.8 0.3 20
2019-09-10 19:00:00 25.9 14 Norte 61 Noroeste 0 980.4 -0.3 17
2019-09-10 18:00:00 25.9 17 Norte 48 Norte 0 980.5 -0.7 16
2019-09-10 17:00:00 25.6 22 Noroeste 44 Noroeste 0 980.5 -1 17
2019-09-10 16:00:00 25.5 22 Noroeste 46 Noroeste 0 980.7 -1.2 15
2019-09-10 15:00:00 24.7 18 Norte 39 Norte 0 981.2 -0.8 19
2019-09-10 14:00:00 23.6 12 Norte 35 Norte 0 981.5 -0.5 21
2019-09-10 13:00:00 22.5 16 Norte 42 Norte 0 981.9 0.6 24
2019-09-10 12:00:00 20.5 15 Norte 41 Norte 0 982 1.2 29
2019-09-10 11:00:00 18.5 18 Norte 45 Norte 0 982 2 35
2019-09-10 10:00:00 16.4 19 Norte 41 Norte 0 981.3 1.7 44
2019-09-10 09:00:00 15.6 19 Norte 44 Nordeste 0 980.8 1.7 47
2019-09-10 08:00:00 15.7 21 Noroeste 39 Noroeste 0 980 0.5 46
2019-09-10 07:00:00 16.6 9 Noroeste 27 Noroeste 0 979.6 -0.3 63
2019-09-10 06:00:00 17 8 Norte 32 Noroeste 0 979.1 -0.7 62
2019-09-10 05:00:00 17 12 Noroeste 25 Noroeste 0 979.5 -0.3 64
2019-09-10 04:00:00 17.3 12 Norte 23 Noroeste 0 979.9 0.3 62
2019-09-10 03:00:00 18.2 12 Noroeste 25 Noroeste 0 979.8 0.5 58
2019-09-10 02:00:00 18.6 15 Noroeste 49 Noroeste 0 979.8 0.7 58
2019-09-10 01:00:00 20.1 17 Noroeste 47 Noroeste 0 979.6 1.1 49
2019-09-10 00:00:00 21.5 20 Noroeste 44 Norte 0 979.3 1.3 39
2019-09-09 23:00:00 22.2 11 Noroeste 22 Noroeste 0 979.1 1.3 34
2019-09-09 22:00:00 23.2 4 Oeste 16 Oeste 0 978.5 1.1 30
2019-09-09 21:00:00 24.4 10 Oeste 34 Oeste 0 978 0.8 25
2019-09-09 20:00:00 27.5 19 Oeste 40 Oeste 0 977.8 0.2 18
2019-09-09 19:00:00 28.3 25 Oeste 41 Oeste 0 977.4 -0.8 20
2019-09-09 18:00:00 29.9 21 Sudoeste 45 Sudoeste 0 977.2 -1.8 16
2019-09-09 17:00:00 31.6 22 Oeste 37 Sudoeste 0 977.6 -2 15
2019-09-09 16:00:00 31.9 18 Sudoeste 40 Sudoeste 0 978.2 -2 13
2019-09-09 15:00:00 30.7 22 Oeste 38 Oeste 0 979 -1.6 12
2019-09-09 14:00:00 29.8 9 Oeste 26 Oeste 0 979.6 -1.3 14
2019-09-09 13:00:00 28.1 8 Oeste 17 Oeste 0 980.2 -0.2 19
2019-09-09 12:00:00 25.2 5 Sudoeste 12 Sudoeste 0 980.6 0.6 28
2019-09-09 11:00:00 22 4 Sudoeste 10 Sudoeste 0 980.9 1.1 35
2019-09-09 10:00:00 20.1 2 Sur 9 Sudeste 0 980.4 0.9 36
2019-09-09 09:00:00 17.4 2 Este 6 Nordeste 0 980 0.5 45
2019-09-09 08:00:00 16.2 5 Nordeste 7 Nordeste 0 979.8 -0.1 50
2019-09-09 07:00:00 18.1 5 Noroeste 8 Noroeste 0 979.5 -0.3 40
2019-09-09 06:00:00 19.3 6 Noroeste 17 Noroeste 0 979.5 -0.4 36
2019-09-09 05:00:00 19.5 6 Noroeste 11 Noroeste 0 979.9 0 35
2019-09-09 04:00:00 19.6 8 Oeste 16 Noroeste 0 979.8 -0.2 34
2019-09-09 03:00:00 21.9 9 Noroeste 14 Noroeste 0 979.9 0.1 29
2019-09-09 02:00:00 21.6 7 Noroeste 11 Oeste 0 979.9 0.3 29
2019-09-09 01:00:00 22.1 5 Noroeste 16 Noroeste 0 980 1 28
2019-09-09 00:00:00 23.4 11 Noroeste 20 Noroeste 0 979.8 1.1 25
2019-09-08 23:00:00 26.4 10 Norte 22 Norte 0 979.6 1.2 19
2019-09-08 22:00:00 27.4 9 Norte 20 Norte 0 979 0.9 18
2019-09-08 21:00:00 29.3 4 Oeste 12 Noroeste 0 978.7 0.9 20
2019-09-08 20:00:00 32 5 Sur 14 Sur 0 978.4 -0.2 15
2019-09-08 19:00:00 33.2 6 Sudeste 22 Oeste 0 978.1 -1.2 14
2019-09-08 18:00:00 32.8 10 Noroeste 25 Oeste 0 977.8 -2 15
2019-09-08 17:00:00 32.8 11 Sudoeste 24 Oeste 0 978.6 -1.6 16
2019-09-08 16:00:00 31.9 5 Sur 24 Oeste 0 979.3 -1.3 17
2019-09-08 15:00:00 31.5 8 Sur 21 Sudeste 0 979.8 -1.2 23
2019-09-08 14:00:00 30 10 Sudeste 22 Sudeste 0 980.2 -0.6 24
2019-09-08 13:00:00 28.4 8 Este 24 Sudeste 0 980.6 0 28
2019-09-08 12:00:00 26.5 14 Este 28 Este 0 981 0.7 33
2019-09-08 11:00:00 24.8 15 Este 29 Este 0 980.8 0.8 36
2019-09-08 10:00:00 22.4 5 Nordeste 14 Este 0 980.6 1.1 33
2019-09-08 09:00:00 18.9 6 Nordeste 16 Norte 0 980.3 0.9 37
2019-09-08 08:00:00 16.9 2 Oeste 9 Este 0 980 0.6 37
2019-09-08 07:00:00 17.7 7 Este 12 Este 0 979.5 0.2 34
2019-09-08 06:00:00 18.9 3 Nordeste 12 Norte 0 979.4 0.1 30
2019-09-08 05:00:00 19.2 2 Noroeste 12 Este 0 979.4 0.2 29
2019-09-08 04:00:00 19.9 2 Norte 8 Norte 0 979.3 0.1 27
2019-09-08 03:00:00 21.3 4 Nordeste 10 Nordeste 0 979.3 0.2 25
2019-09-08 02:00:00 22.1 4 Noroeste 22 Nordeste 0 979.2 0.2 23
2019-09-08 01:00:00 23 3 Nordeste 20 Norte 0 979.2 0.6 21
2019-09-08 00:00:00 23.2 11 Norte 23 Norte 0 979.1 1 25
2019-09-07 23:00:00 25.3 13 Norte 27 Norte 0 979 0.7 22
2019-09-07 22:00:00 27.2 13 Norte 29 Norte 0 978.6 0.2 20
2019-09-07 21:00:00 28.5 7 Noroeste 10 Noroeste 0 978.1 -0.4 18
2019-09-07 20:00:00 31.3 4 Sudoeste 12 Este 0 978.3 -0.8 16
2019-09-07 19:00:00 32.4 3 Nordeste 17 Sudeste 0 978.4 -1.4 14
2019-09-07 18:00:00 32.2 10 Sudeste 23 Este 0 978.5 -1.9 14
2019-09-07 17:00:00 31.7 13 Este 27 Este 0 979.1 -1.9 19
2019-09-07 16:00:00 30.9 15 Este 30 Este 0 979.8 -1.5 22
2019-09-07 15:00:00 30.5 10 Este 33 Sudeste 0 980.4 -1.3 22
2019-09-07 14:00:00 28.5 13 Este 32 Este 0 981 -0.8 24
2019-09-07 13:00:00 27.3 13 Este 27 Este 0 981.3 -0.6 23
2019-09-07 12:00:00 25.2 13 Este 27 Este 0 981.7 -0.2 24
2019-09-07 11:00:00 23 12 Este 23 Nordeste 0 981.8 0.4 27
2019-09-07 10:00:00 19.6 8 Nordeste 21 Nordeste 0 981.9 0.8 34
2019-09-07 09:00:00 16.3 5 Nordeste 26 Norte 0 981.9 1.1 43
2019-09-07 08:00:00 14.6 5 Norte 14 Nordeste 0 981.4 0.3 47
2019-09-07 07:00:00 15 0 Calma 7 Sudeste 0 981.1 -0.2 44
2019-09-07 06:00:00 16.4 2 Nordeste 15 Nordeste 0 980.8 -0.5 40
2019-09-07 05:00:00 17.5 4 Este 17 Nordeste 0 981.1 0 37
2019-09-07 04:00:00 18.4 8 Nordeste 15 Nordeste 0 981.3 0.6 34
2019-09-07 03:00:00 19.6 3 Noroeste 15 Nordeste 0 981.3 0.8 31
2019-09-07 02:00:00 20.7 4 Sudeste 24 Nordeste 0 981.1 0.7 29
2019-09-07 01:00:00 22.5 14 Nordeste 44 Norte 0 980.7 0.5 25
2019-09-07 00:00:00 23.4 14 Nordeste 38 Nordeste 0 980.5 0.8 24
2019-09-06 23:00:00 24.4 13 Nordeste 35 Nordeste 0 980.4 1.1 18
2019-09-06 22:00:00 25.6 16 Nordeste 35 Nordeste 0 980.2 1 15
2019-09-06 21:00:00 27.4 6 Nordeste 18 Nordeste 0 979.7 0.2 15
2019-09-06 20:00:00 30.8 5 Sudoeste 14 Sudeste 0 979.3 -0.8 17
2019-09-06 19:00:00 30.6 8 Sudeste 19 Sudeste 0 979.2 -1.7 17
2019-09-06 18:00:00 30.9 8 Sudeste 24 Este 0 979.5 -2.4 17
2019-09-06 17:00:00 30.5 11 Este 24 Este 0 980.1 -2.3 16
2019-09-06 16:00:00 29.4 13 Este 31 Este 0 980.9 -2.1 18
2019-09-06 15:00:00 28.3 12 Este 28 Este 0 981.9 -1.6 21
2019-09-06 14:00:00 27 16 Este 33 Este 0 982.4 -1.1 23
2019-09-06 13:00:00 25.5 17 Este 33 Este 0 983 -0.5 25
2019-09-06 12:00:00 23.1 13 Este 30 Este 0 983.5 0.3 30
2019-09-06 11:00:00 20.9 16 Este 32 Este 0 983.5 0.6 33
2019-09-06 10:00:00 19.1 17 Este 37 Este 0 983.5 1 38
2019-09-06 09:00:00 16.9 10 Nordeste 32 Nordeste 0 983.2 0.8 45
2019-09-06 08:00:00 16.1 12 Nordeste 26 Este 0 982.9 0.6 47
2019-09-06 07:00:00 16.9 10 Nordeste 30 Nordeste 0 982.5 0.3 44
2019-09-06 06:00:00 18 12 Nordeste 35 Nordeste 0 982.4 0.3 41
2019-09-06 05:00:00 18.9 12 Nordeste 35 Nordeste 0 982.3 0.3 39
2019-09-06 04:00:00 19.6 14 Nordeste 34 Nordeste 0 982.2 0.5 37
2019-09-06 03:00:00 20.2 15 Nordeste 31 Nordeste 0 982.1 0.4 36
2019-09-06 02:00:00 21.3 11 Nordeste 33 Nordeste 0 982 0.8 33
2019-09-06 01:00:00 21.9 10 Este 36 Nordeste 0 981.7 0.7 31
2019-09-06 00:00:00 23.3 11 Nordeste 33 Nordeste 0 981.7 1.6 26
2019-09-05 23:00:00 24.5 10 Norte 27 Norte 0 981.2 1.4 21
2019-09-05 22:00:00 25.9 11 Nordeste 30 Nordeste 0 981 1.2 20
2019-09-05 21:00:00 28 11 Nordeste 28 Nordeste 0 980.1 0.5 16
2019-09-05 20:00:00 30.3 14 Nordeste 36 Nordeste 0 979.8 -0.1 14
2019-09-05 19:00:00 32.2 15 Nordeste 38 Este 0 979.8 -0.8 15
2019-09-05 18:00:00 33 16 Nordeste 39 Este 0 979.6 -1.7 15
2019-09-05 17:00:00 33.1 19 Este 38 Este 0 979.9 -1.7 16
2019-09-05 16:00:00 32.5 20 Este 40 Este 0 980.6 -1.5 19
2019-09-05 15:00:00 31.8 18 Este 37 Nordeste 0 981.3 -0.9 20
2019-09-05 14:00:00 30.4 15 Nordeste 41 Nordeste 0 981.6 -0.8 22
2019-09-05 13:00:00 28.7 18 Nordeste 37 Nordeste 0 982.1 0 24
2019-09-05 12:00:00 27 18 Este 37 Nordeste 0 982.2 0.4 28
2019-09-05 11:00:00 25.1 19 Nordeste 41 Nordeste 0 982.4 1.4 29
2019-09-05 10:00:00 23.8 14 Nordeste 36 Nordeste 0 982.1 1.7 30
2019-09-05 09:00:00 21.8 13 Nordeste 45 Nordeste 0 981.8 1.9 32
2019-09-05 08:00:00 21.6 17 Nordeste 46 Nordeste 0 981 1.4 37
2019-09-05 07:00:00 22 15 Nordeste 39 Norte 0 980.4 1 38
2019-09-05 06:00:00 22.8 18 Nordeste 41 Nordeste 0 979.9 0.6 35
2019-09-05 05:00:00 23.9 15 Norte 38 Norte 0 979.6 0.5 32
2019-09-05 04:00:00 23.1 9 Este 13 Norte 0 979.4 0.1 30
2019-09-05 03:00:00 24.3 4 Sudeste 23 Norte 0 979.3 0 31
2019-09-05 02:00:00 26.3 15 Norte 32 Norte 0 979.1 -0.4 27
2019-09-05 01:00:00 26.7 10 Norte 27 Norte 0 979.3 0.1 16
2019-09-05 00:00:00 27.1 13 Norte 22 Noroeste 0 979.3 0.7 17
2019-09-04 23:00:00 28.3 12 Noroeste 27 Noroeste 0 979.5 1.2 18
2019-09-04 22:00:00 29.8 15 Noroeste 28 Oeste 0 979.2 0.8 14
2019-09-04 21:00:00 32 12 Oeste 38 Oeste 0 978.6 0 12
2019-09-04 20:00:00 34.9 22 Oeste 44 Oeste 0 978.3 -0.8 10
2019-09-04 19:00:00 36.5 25 Oeste 45 Oeste 0 978.4 -1.2 9
2019-09-04 18:00:00 37.3 18 Oeste 41 Oeste 0 978.6 -1.8 10
2019-09-04 17:00:00 37.4 18 Oeste 44 Oeste 0 979.1 -1.8 10
2019-09-04 16:00:00 37.2 13 Oeste 37 Noroeste 0 979.6 -2.2 10
2019-09-04 15:00:00 35.7 14 Noroeste 31 Noroeste 0 980.4 -1.9 12
2019-09-04 14:00:00 35.1 14 Sudoeste 25 Sudoeste 0 980.9 -1.7 15
2019-09-04 13:00:00 33.5 6 Sudeste 12 Sudeste 0 981.8 -0.6 19
2019-09-04 12:00:00 30.8 5 Sudeste 13 Sudeste 0 982.3 0.2 23
2019-09-04 11:00:00 26.5 5 Oeste 11 Oeste 0 982.6 0.8 38
2019-09-04 10:00:00 24.9 8 Este 15 Este 0 982.4 0.9 31
2019-09-04 09:00:00 20.8 9 Este 13 Este 0 982.1 0.6 41
2019-09-04 08:00:00 20.1 2 Sudeste 6 Oeste 0 981.8 0.3 39
2019-09-04 07:00:00 20.5 0 Calma 7 Sudeste 0 981.5 0 37
2019-09-04 06:00:00 21.7 4 Oeste 9 Norte 0 981.5 -0.3 39
2019-09-04 05:00:00 21.8 8 Noroeste 13 Noroeste 0 981.5 -0.2 34
2019-09-04 04:00:00 23.9 3 Sudeste 13 Noroeste 0 981.5 -0.1 29
2019-09-04 03:00:00 24.9 3 Sudeste 12 Nordeste 0 981.8 0.3 27
2019-09-04 02:00:00 26.3 6 Norte 11 Noroeste 0 981.7 0 24
2019-09-04 01:00:00 27 2 Sudoeste 20 Norte 0 981.6 0.4 26
2019-09-04 00:00:00 30.1 11 Nordeste 22 Nordeste 0 981.5 0.9 19
2019-09-03 23:00:00 30.3 13 Norte 26 Norte 0 981.7 1.3 19
2019-09-03 22:00:00 31.6 10 Norte 17 Norte 0 981.2 0.7 18
2019-09-03 21:00:00 33.6 2 Este 8 Sur 0 980.6 -0.2 19
2019-09-03 20:00:00 36.4 4 Sur 12 Sur 0 980.4 -1 15
2019-09-03 19:00:00 37.4 8 Sudoeste 17 Sudoeste 0 980.5 -1.4 14
2019-09-03 18:00:00 37.1 4 Norte 23 Oeste 0 980.8 -1.7 14
2019-09-03 17:00:00 37 7 Oeste 23 Oeste 0 981.4 -1.5 13
2019-09-03 16:00:00 36.5 8 Sur 22 Sudeste 0 981.9 -1.6 20
2019-09-03 15:00:00 35.1 7 Este 22 Este 0 982.5 -1.3 23
2019-09-03 14:00:00 33.9 14 Este 34 Este 0 982.9 -0.8 23
2019-09-03 13:00:00 31.8 7 Este 22 Este 0 983.5 0.3 28
2019-09-03 12:00:00 29.8 14 Este 25 Este 0 983.8 1 32
2019-09-03 11:00:00 28.2 10 Este 24 Este 0 983.7 1.6 31
2019-09-03 10:00:00 24.5 4 Noroeste 9 Noroeste 0 983.2 1.6 33
2019-09-03 09:00:00 22.1 3 Sudeste 8 Norte 0 982.8 1.5 41
2019-09-03 08:00:00 21.4 6 Este 17 Norte 0 982.1 0.9 40
2019-09-03 07:00:00 20.9 3 Oeste 8 Noroeste 0 981.6 0.5 43
2019-09-03 06:00:00 22.1 2 Sudeste 9 Noroeste 0 981.3 0.2 38
2019-09-03 05:00:00 22.2 5 Este 8 Este 0 981.2 0.5 40
2019-09-03 04:00:00 23.1 4 Este 8 Este 0 981.1 0.8 37
2019-09-03 03:00:00 24.1 2 Sudeste 12 Este 0 981.1 1.3 34
2019-09-03 02:00:00 25.6 3 Nordeste 11 Nordeste 0 980.7 1.2 30
2019-09-03 01:00:00 26.6 4 Sudoeste 18 Nordeste 0 980.3 1.5 31
2019-09-03 00:00:00 28.6 14 Nordeste 30 Nordeste 0 979.8 1.5 27
2019-09-02 23:00:00 29.6 15 Nordeste 32 Norte 0 979.5 1.5 27
2019-09-02 22:00:00 30.6 13 Norte 24 Norte 0 978.8 0.8 26
2019-09-02 21:00:00 31.9 9 Norte 23 Noroeste 0 978.3 0.3 23
2019-09-02 20:00:00 34.5 13 Noroeste 25 Norte 0 978 -0.5 19
2019-09-02 19:00:00 35.6 7 Norte 22 Noroeste 0 978 -0.9 19
2019-09-02 18:00:00 35.8 5 Norte 18 Sudeste 0 978 -1.5 20
2019-09-02 17:00:00 35.4 9 Este 33 Sudeste 0 978.5 -1.5 21
2019-09-02 16:00:00 35.1 6 Nordeste 23 Este 0 978.9 -1.5 23
2019-09-02 15:00:00 34 12 Este 30 Nordeste 0 979.5 -0.8 26
2019-09-02 14:00:00 32.2 17 Este 30 Este 0 980 -0.3 29
2019-09-02 13:00:00 30.1 17 Este 36 Nordeste 0 980.4 0.5 32
2019-09-02 12:00:00 28.7 15 Este 35 Este 0 980.3 0.9 34
2019-09-02 11:00:00 27 13 Este 31 Este 0 980.3 1.7 38
2019-09-02 10:00:00 24.7 8 Nordeste 16 Nordeste 0 979.9 1.8 43
2019-09-02 09:00:00 22.2 5 Nordeste 24 Norte 0 979.4 1.6 51
2019-09-02 08:00:00 20.7 9 Norte 20 Norte 0 978.6 1.2 54
2019-09-02 07:00:00 21.7 2 Noroeste 19 Nordeste 0 978.1 0.8 50
2019-09-02 06:00:00 22.6 3 Nordeste 14 Norte 0 977.8 0.5 46
2019-09-02 05:00:00 23.3 3 Este 8 Este 0 977.4 0.4 42
2019-09-02 04:00:00 24.4 4 Nordeste 19 Nordeste 0 977.3 0.6 39
2019-09-02 03:00:00 25 5 Nordeste 25 Norte 0 977.3 0.6 33
2019-09-02 02:00:00 25.6 14 Noroeste 25 Noroeste 0 977 0.5 33
2019-09-02 01:00:00 26.7 15 Noroeste 27 Norte 0 976.7 0.8 31
2019-09-02 00:00:00 28 14 Norte 24 Noroeste 0 976.7 1.4 28
2019-09-01 23:00:00 27.8 11 Noroeste 20 Noroeste 0 976.5 1.3 31
2019-09-01 22:00:00 30 6 Oeste 17 Oeste 0 975.9 0.6 25
2019-09-01 21:00:00 32 9 Oeste 24 Oeste 0 975.3 -0.2 23
2019-09-01 20:00:00 34.3 14 Oeste 24 Oeste 0 975.2 -0.7 19
2019-09-01 19:00:00 34.8 8 Noroeste 26 Noroeste 0 975.3 -1.1 18
2019-09-01 18:00:00 34.7 12 Oeste 27 Oeste 0 975.5 -1.5 18
2019-09-01 17:00:00 35.3 16 Oeste 27 Sudoeste 0 975.9 -1.7 18
2019-09-01 16:00:00 35.9 10 Sudoeste 22 Oeste 0 976.4 -1.7 17
2019-09-01 15:00:00 34.4 7 Oeste 18 Sudoeste 0 977 -1.5 21
2019-09-01 14:00:00 33 6 Noroeste 15 Sudoeste 0 977.6 -0.9 24
2019-09-01 13:00:00 31.9 6 Sudoeste 18 Sudoeste 0 978.1 0.1 27
2019-09-01 12:00:00 30 4 Sudoeste 10 Oeste 0 978.5 0.6 31
2019-09-01 11:00:00 26.6 6 Oeste 14 Oeste 0 978.5 0.9 39
2019-09-01 10:00:00 23.4 6 Oeste 9 Oeste 0 978 0.6 49
2019-09-01 09:00:00 21.1 5 Noroeste 12 Norte 0 977.9 0.6 55
2019-09-01 08:00:00 20.7 9 Noroeste 14 Norte 0 977.6 0.1 54
2019-09-01 07:00:00 20.9 8 Noroeste 13 Noroeste 0 977.4 -0.3 54
2019-09-01 06:00:00 21.8 4 Noroeste 9 Oeste 0 977.3 -0.8 52
2019-09-01 05:00:00 23.6 0 Calma 22 Norte 0 977.5 -0.8 46
2019-09-01 04:00:00 24.7 12 Norte 21 Norte 0 977.7 -0.5 42
2019-09-01 03:00:00 23.3 3 Oeste 17 Noroeste 0 978.1 0.1 43
2019-09-01 02:00:00 24.4 8 Noroeste 12 Noroeste 0 978.3 0.4 39
2019-09-01 01:00:00 25.4 8 Noroeste 14 Noroeste 0 978.2 0.8 35
2019-09-01 00:00:00 26.6 5 Oeste 12 Oeste 0 978 1.1 32
2019-08-31 23:00:00 27.9 7 Oeste 21 Oeste 0 977.9 1.4 28
2019-08-31 22:00:00 30.1 11 Oeste 22 Oeste 0 977.4 0.8 25
2019-08-31 21:00:00 32.3 14 Oeste 31 Oeste 0 976.9 0.1 23
2019-08-31 20:00:00 35.8 8 Oeste 25 Oeste 0 976.5 -0.9 18
2019-08-31 19:00:00 37 10 Sudoeste 23 Oeste 0 976.6 -1.7 16
2019-08-31 18:00:00 37.1 8 Sudoeste 19 Oeste 0 976.8 -2.3 16
2019-08-31 17:00:00 36.7 6 Sudeste 15 Sur 0 977.4 -2.3 18
2019-08-31 16:00:00 36.2 6 Sudoeste 18 Oeste 0 978.3 -1.9 19
2019-08-31 15:00:00 35.3 7 Sudoeste 18 Oeste 0 979.1 -1.4 21
2019-08-31 14:00:00 33.4 8 Nordeste 19 Este 0 979.7 -0.8 24
2019-08-31 13:00:00 32.3 11 Este 23 Este 0 980.2 -0.1 27
2019-08-31 12:00:00 30.6 8 Este 23 Este 0 980.5 0.4 30
2019-08-31 11:00:00 27.9 15 Este 27 Este 0 980.5 0.9 35
2019-08-31 10:00:00 26.4 14 Este 21 Este 0 980.3 0.7 36
2019-08-31 09:00:00 24.1 9 Este 15 Este 0 980.1 0.5 42
2019-08-31 08:00:00 23.3 12 Este 20 Este 0 979.6 -0.3 43
2019-08-31 07:00:00 23.8 12 Este 20 Este 0 979.6 -0.4 43
2019-08-31 06:00:00 24.5 10 Este 24 Este 0 979.6 -0.5 40
2019-08-31 05:00:00 25 12 Este 21 Este 0 979.9 -0.3 37
2019-08-31 04:00:00 25.1 9 Este 21 Este 0 980 -0.3 38
2019-08-31 03:00:00 26.3 13 Este 24 Este 0 980.1 -0.3 34
2019-08-31 02:00:00 27.2 13 Este 28 Este 0 980.2 0.4 32
2019-08-31 01:00:00 27.9 11 Este 30 Este 0 980.3 1.2 31
2019-08-31 00:00:00 29.5 14 Este 30 Este 0 980.4 1.6 27
2019-08-30 23:00:00 29.3 6 Este 22 Nordeste 0 979.8 1 27
2019-08-30 22:00:00 32.1 7 Nordeste 12 Norte 0 979.1 0.1 20
2019-08-30 21:00:00 34.3 5 Norte 18 Noroeste 0 978.8 -0.5 19
2019-08-30 20:00:00 35.9 6 Norte 20 Oeste 0 978.8 -1.1 17
2019-08-30 19:00:00 36.9 13 Oeste 24 Oeste 0 979 -1.7 15
2019-08-30 18:00:00 37.2 9 Oeste 23 Oeste 0 979.3 -2.2 16
2019-08-30 17:00:00 36.8 6 Oeste 21 Oeste 0 979.9 -2.4 17
2019-08-30 16:00:00 36.7 7 Sur 19 Sudoeste 0 980.7 -2.2 18
2019-08-30 15:00:00 35.2 9 Oeste 20 Sur 0 981.5 -1.6 17
2019-08-30 14:00:00 34.3 6 Sudoeste 24 Este 0 982.3 -0.9 24
2019-08-30 13:00:00 32.8 10 Este 23 Este 0 982.9 -0.1 28
2019-08-30 12:00:00 30.2 12 Este 24 Este 0 983.1 0.4 31
2019-08-30 11:00:00 28.3 6 Sudeste 16 Sudeste 0 983.2 0.9 32
2019-08-30 10:00:00 23.7 5 Oeste 10 Este 0 983 1 47
2019-08-30 09:00:00 21.6 4 Este 12 Este 0 982.7 1.1 51
2019-08-30 08:00:00 19.9 6 Este 10 Este 0 982.3 0.6 52
2019-08-30 07:00:00 20.6 8 Este 10 Este 0 982 0.4 52
2019-08-30 06:00:00 21.7 2 Este 17 Noroeste 0 981.6 -0.1 47
2019-08-30 05:00:00 22.5 7 Noroeste 14 Noroeste 0 981.7 0 43
2019-08-30 04:00:00 23.4 4 Noroeste 8 Noroeste 0 981.6 0 41
2019-08-30 03:00:00 24.4 4 Noroeste 13 Noroeste 0 981.7 0.3 38
2019-08-30 02:00:00 24.7 6 Noroeste 11 Noroeste 0 981.7 0.6 36
2019-08-30 01:00:00 24.5 7 Noroeste 19 Noroeste 0 981.6 1.1 38
2019-08-30 00:00:00 26.6 11 Noroeste 19 Noroeste 0 981.4 1.2 32
2019-08-29 23:00:00 28.2 5 Noroeste 17 Oeste 0 981.1 1.3 25
2019-08-29 22:00:00 29.8 8 Oeste 16 Oeste 0 980.5 0.8 22
2019-08-29 21:00:00 32.4 6 Oeste 24 Noroeste 0 980.2 0.3 21
2019-08-29 20:00:00 35.4 10 Noroeste 23 Noroeste 0 979.8 -0.4 16
2019-08-29 19:00:00 36.9 14 Oeste 26 Sudoeste 0 979.7 -1.2 14
2019-08-29 18:00:00 36.6 11 Oeste 23 Oeste 0 979.9 -1.5 16
2019-08-29 17:00:00 36.4 10 Sudoeste 26 Sudoeste 0 980.2 -1.7 16
2019-08-29 16:00:00 36.5 9 Sudoeste 26 Sudoeste 0 980.9 -1.2 18
2019-08-29 15:00:00 35.3 5 Sur 21 Oeste 0 981.4 -0.8 20
2019-08-29 14:00:00 33.3 6 Sudoeste 18 Sudoeste 0 981.9 -0.1 26
2019-08-29 13:00:00 31.4 4 Sudeste 20 Sudeste 0 982.1 0.3 30
2019-08-29 12:00:00 29.2 6 Sudeste 16 Este 0 982.2 0.9 34
2019-08-29 11:00:00 26.1 8 Sudeste 15 Sudeste 0 982 1.1 45
2019-08-29 10:00:00 23.5 4 Sudeste 8 Este 0 981.8 1.1 53
2019-08-29 09:00:00 20 3 Noroeste 7 Oeste 0 981.3 0.8 65
2019-08-29 08:00:00 19.3 5 Este 9 Este 0 980.9 0.4 64
2019-08-29 07:00:00 19.9 2 Oeste 6 Este 0 980.7 0.4 60
2019-08-29 06:00:00 21.2 5 Nordeste 12 Norte 0 980.5 0.2 53
2019-08-29 05:00:00 20.9 3 Noroeste 8 Noroeste 0 980.5 0.3 52
2019-08-29 04:00:00 21.9 2 Noroeste 6 Este 0 980.3 0.2 49
2019-08-29 03:00:00 22 3 Noroeste 12 Noroeste 0 980.3 0.5 55
2019-08-29 02:00:00 23.5 8 Noroeste 18 Noroeste 0 980.2 0.6 49
2019-08-29 01:00:00 25.1 7 Noroeste 18 Oeste 0 980.1 1.2 41
2019-08-29 00:00:00 26.4 5 Oeste 19 Oeste 0 979.8 1.3 34
2019-08-28 23:00:00 26.6 2 Este 13 Sudoeste 0 979.6 1.2 40
2019-08-28 22:00:00 29.2 5 Nordeste 10 Norte 0 978.9 0.3 27
2019-08-28 21:00:00 31.8 3 Este 12 Este 0 978.5 -0.4 24
2019-08-28 20:00:00 33.9 4 Noroeste 18 Noroeste 0 978.4 -0.9 20
2019-08-28 19:00:00 34.8 6 Sudoeste 18 Oeste 0 978.6 -1.3 19
2019-08-28 18:00:00 34.5 9 Oeste 19 Sudoeste 0 978.9 -1.4 19
2019-08-28 17:00:00 34.4 6 Sudoeste 20 Sur 0 979.3 -1.5 21
2019-08-28 16:00:00 33.2 9 Oeste 23 Oeste 0 979.9 -1.4 24
2019-08-28 15:00:00 32.5 8 Sudoeste 24 Oeste 0 980.3 -1.1 26
2019-08-28 14:00:00 31.2 6 Sudoeste 21 Oeste 0 980.8 -0.4 30
2019-08-28 13:00:00 29.7 7 Sudoeste 14 Sudoeste 0 981.3 0.3 37
2019-08-28 12:00:00 28.2 5 Sudeste 14 Sudeste 0 981.4 0.6 37
2019-08-28 11:00:00 25.6 6 Sudeste 12 Sudeste 0 981.2 0.8 47
2019-08-28 10:00:00 23.4 5 Sudeste 9 Sur 0 981 0.7 57
2019-08-28 09:00:00 20.1 2 Oeste 5 Este 0 980.8 0.7 69
2019-08-28 08:00:00 18.7 4 Este 6 Este 0 980.4 0.3 73
2019-08-28 07:00:00 19.4 0 Calma 4 Sudoeste 0 980.3 0.2 67
2019-08-28 06:00:00 20.2 3 Oeste 8 Nordeste 0 980.1 -0.1 62
2019-08-28 05:00:00 20.4 3 Nordeste 11 Sudeste 0 980.1 -0.1 65
2019-08-28 04:00:00 21.6 5 Este 14 Sudeste 0 980.1 0.2 59
2019-08-28 03:00:00 21.9 3 Noroeste 6 Noroeste 0 980.2 0.2 58
2019-08-28 02:00:00 21.9 5 Oeste 19 Noroeste 0 980.2 0.8 61
2019-08-28 01:00:00 24 11 Norte 20 Norte 0 979.9 1 48
2019-08-28 00:00:00 24.8 5 Oeste 11 Noroeste 0 980 1.5 44
2019-08-27 23:00:00 25.7 0 Calma 5 Este 0 979.4 1.2 39
2019-08-27 22:00:00 26.7 4 Este 8 Este 0 978.9 0.7 37
2019-08-27 21:00:00 29.1 2 Sudeste 12 Sudeste 0 978.5 0.2 33
2019-08-27 20:00:00 31.1 5 Sur 14 Sudeste 0 978.2 -0.4 27
2019-08-27 19:00:00 32 9 Sudoeste 20 Oeste 0 978.2 -0.8 25
2019-08-27 18:00:00 31.9 10 Oeste 22 Oeste 0 978.3 -1.1 26
2019-08-27 17:00:00 31.7 6 Sur 23 Sudoeste 0 978.6 -1.4 26
2019-08-27 16:00:00 31.1 10 Sur 25 Oeste 0 979 -1.4 29
2019-08-27 15:00:00 29.4 8 Sudoeste 21 Sudoeste 0 979.4 -1.4 32
2019-08-27 14:00:00 28.7 8 Sudoeste 17 Sudoeste 0 980 -0.8 35
2019-08-27 13:00:00 26.7 7 Sudeste 20 Sudeste 0 980.4 -0.1 42
2019-08-27 12:00:00 24.9 11 Este 24 Sudeste 0 980.8 0.8 47
2019-08-27 11:00:00 23.7 8 Este 17 Este 0 980.8 1.5 52
2019-08-27 10:00:00 21.8 8 Este 12 Este 0 980.5 1.7 61
2019-08-27 09:00:00 19.2 3 Sudeste 9 Norte 0 980 1.2 75
2019-08-27 08:00:00 18.2 5 Norte 13 Norte 0 979.3 0.6 72
2019-08-27 07:00:00 18.5 4 Nordeste 13 Este 0 978.8 0.3 72
2019-08-27 06:00:00 18 10 Este 20 Este 0 978.8 0.7 75
2019-08-27 05:00:00 18.3 14 Este 23 Este 0 978.7 0 73
2019-08-27 04:00:00 18.6 5 Este 11 Este 0 978.5 0 72
2019-08-27 03:00:00 20 4 Este 13 Nordeste 0 978.1 -0.3 63
2019-08-27 02:00:00 20.4 8 Este 15 Nordeste 0 978.7 0.9 60
2019-08-27 01:00:00 20.5 8 Este 16 Nordeste 0 978.5 0.7 61
2019-08-27 00:00:00 21.3 3 Norte 14 Nordeste 0 978.4 1.8 59
2019-08-26 23:00:00 23.2 7 Norte 16 Nordeste 0 977.8 1.8 51
2019-08-26 22:00:00 23.8 5 Norte 17 Noroeste 0 977.8 1.8 49
2019-08-26 21:00:00 25.3 9 Noroeste 33 Oeste 0 976.6 0.3 41
2019-08-26 20:00:00 27.6 23 Oeste 38 Oeste 0 976 -0.9 32
2019-08-26 19:00:00 29.1 14 Oeste 32 Noroeste 0 976 -1.5 31
2019-08-26 18:00:00 29.1 12 Oeste 32 Noroeste 0 976.3 -2 35
2019-08-26 17:00:00 28.7 8 Oeste 22 Noroeste 0 976.9 -1.5 42
2019-08-26 16:00:00 28.1 8 Sudeste 24 Este 0 977.5 -0.3 44
2019-08-26 15:00:00 26.2 6 Sudoeste 13 Sudoeste 0 978.3 -0.2 52
2019-08-26 14:00:00 23.4 7 Este 22 Este 0 978.4 -1.6 63
2019-08-26 13:00:00 20.5 19 Este 37 Norte 0 977.8 -1.2 74
2019-08-26 12:00:00 18.7 14 Nordeste 34 Nordeste 0.6 978.5 -0.4 78
2019-08-26 11:00:00 18.7 10 Oeste 32 Oeste 0 980 1.6 69
2019-08-26 10:00:00 18.1 9 Noroeste 22 Noroeste 0 979 2.3 78
2019-08-26 09:00:00 17.6 13 Oeste 41 Noroeste 1 978.9 3 83
2019-08-26 08:00:00 19.3 15 Noroeste 30 Noroeste 1 978.4 1.9 83
2019-08-26 07:00:00 20.1 4 Sudoeste 37 Norte 0 976.7 0.7 80
2019-08-26 06:00:00 20 17 Norte 38 Nordeste 0.8 975.9 0 80
2019-08-26 05:00:00 20.8 5 Noroeste 33 Norte 0.6 976.5 0.2 76
2019-08-26 04:00:00 22.1 15 Noroeste 26 Noroeste 0 976 -0.2 63
2019-08-26 03:00:00 23.5 9 Norte 36 Norte 0 975.9 -1.1 50
2019-08-26 02:00:00 23.4 14 Norte 38 Nordeste 0 976.3 -0.1 51
2019-08-26 01:00:00 24.6 15 Norte 42 Nordeste 0 976.2 0.3 45
2019-08-26 00:00:00 25.1 5 Este 20 Norte 0 977 1.9 42
2019-08-25 23:00:00 25.3 9 Norte 34 Norte 0 976.4 1.6 42
2019-08-25 22:00:00 26.8 13 Norte 34 Noroeste 0 975.9 0.9 36
2019-08-25 21:00:00 29.5 20 Noroeste 42 Noroeste 0 975.1 -0.2 30
2019-08-25 20:00:00 32.3 11 Oeste 25 Oeste 0 974.8 -0.8 22
2019-08-25 19:00:00 33.5 12 Sudoeste 23 Oeste 0 975 -1.1 21
2019-08-25 18:00:00 34.9 11 Sudoeste 35 Oeste 0 975.3 -1.5 20
2019-08-25 17:00:00 35.7 10 Sudoeste 28 Oeste 0 975.6 -1.8 19
2019-08-25 16:00:00 35.9 11 Sudoeste 21 Sur 0 976.1 -2 18
2019-08-25 15:00:00 34.9 8 Sur 31 Este 0 976.8 -2 19
2019-08-25 14:00:00 33.8 16 Este 33 Sudeste 0 977.4 -1.4 21
2019-08-25 13:00:00 32.2 14 Sudeste 31 Este 0 978.1 -0.6 24
2019-08-25 12:00:00 29.3 20 Este 35 Este 0 978.8 0.5 28
2019-08-25 11:00:00 28 15 Este 26 Este 0 978.8 1.2 29
2019-08-25 10:00:00 25.7 11 Este 17 Este 0 978.7 1.4 33
2019-08-25 09:00:00 22.5 4 Este 18 Este 0 978.3 1.1 48
2019-08-25 08:00:00 24.7 12 Este 26 Este 0 977.6 0.1 35
2019-08-25 07:00:00 24.4 7 Este 18 Norte 0 977.3 0 43
2019-08-25 06:00:00 24.5 8 Noroeste 13 Noroeste 0 977.2 -0.5 41
2019-08-25 05:00:00 25.4 4 Norte 19 Norte 0 977.5 -0.3 38
2019-08-25 04:00:00 26.5 12 Norte 20 Norte 0 977.3 -0.6 35
2019-08-25 03:00:00 26.6 5 Norte 28 Norte 0 977.7 -0.3 35
2019-08-25 02:00:00 27.2 14 Norte 28 Norte 0 977.8 -0.2 34
2019-08-25 01:00:00 27.9 16 Norte 30 Norte 0 977.9 0.4 30
2019-08-25 00:00:00 28.4 17 Norte 29 Norte 0 978 0.7 28
2019-08-24 23:00:00 29.9 7 Sudeste 18 Sudoeste 0 978 0.6 22
2019-08-24 22:00:00 31.4 6 Nordeste 11 Sudeste 0 977.5 -0.4 17
2019-08-24 21:00:00 34.2 6 Nordeste 14 Este 0 977.3 -1.1 14
2019-08-24 20:00:00 36.8 11 Este 21 Este 0 977.4 -1.3 12
2019-08-24 19:00:00 38.1 6 Sudeste 15 Este 0 977.9 -1.4 11
2019-08-24 18:00:00 38.7 4 Sudoeste 21 Este 0 978.4 -1.5 11
2019-08-24 17:00:00 38 5 Sur 22 Sudeste 0 978.7 -1.8 12
2019-08-24 16:00:00 37.2 6 Nordeste 26 Sudeste 0 979.3 -1.8 13
2019-08-24 15:00:00 36.5 9 Este 27 Este 0 979.9 -1.6 14
2019-08-24 14:00:00 35 12 Este 27 Este 0 980.5 -0.8 16
2019-08-24 13:00:00 33.2 18 Este 33 Este 0 981.1 0 19
2019-08-24 12:00:00 30.9 17 Este 32 Sudeste 0 981.5 0.9 21
2019-08-24 11:00:00 29 17 Este 34 Este 0 981.3 1 25
2019-08-24 10:00:00 26.9 18 Este 28 Este 0 981.1 1.1 26
2019-08-24 09:00:00 24.7 12 Este 18 Nordeste 0 980.6 0.7 33
2019-08-24 08:00:00 20.3 11 Este 13 Este 0 980.3 0.3 47
2019-08-24 07:00:00 22.2 4 Este 10 Este 0 980 0 43
2019-08-24 06:00:00 23.5 7 Este 11 Este 0 979.9 -0.1 35
2019-08-24 05:00:00 23.9 5 Este 12 Este 0 980 0.2 34
2019-08-24 04:00:00 24.7 5 Nordeste 10 Este 0 980 0.4 31
2019-08-24 03:00:00 25 5 Este 7 Sudeste 0 980 0.7 31
2019-08-24 02:00:00 27.6 5 Este 28 Norte 0 979.8 0.7 29
2019-08-24 01:00:00 28.6 10 Norte 31 Noroeste 0 979.6 0.9 21
2019-08-24 00:00:00 28.6 9 Nordeste 14 Nordeste 0 979.3 0.8 24
2019-08-23 23:00:00 29.1 3 Este 9 Este 0 979.1 0.6 21
2019-08-23 22:00:00 30.8 5 Este 8 Este 0 978.7 -0.3 19
2019-08-23 21:00:00 33.6 4 Este 12 Sudeste 0 978.5 -0.8 16
2019-08-23 20:00:00 35.6 8 Sudeste 15 Este 0 978.5 -1.2 14
2019-08-23 19:00:00 37.4 5 Sur 18 Oeste 0 979 -1.2 12
2019-08-23 18:00:00 37.3 5 Sur 21 Sudeste 0 979.3 -1.7 13
2019-08-23 17:00:00 37.1 10 Sudeste 25 Sudeste 0 979.7 -1.7 13
2019-08-23 16:00:00 36.4 10 Este 28 Este 0 980.2 -1.7 14
2019-08-23 15:00:00 35.4 13 Sudeste 27 Sudeste 0 981 -1.4 18
2019-08-23 14:00:00 33.7 14 Este 31 Este 0 981.4 -0.9 22
2019-08-23 13:00:00 32.2 16 Este 34 Sudeste 0 981.9 -0.1 25
2019-08-23 12:00:00 30.3 21 Este 38 Sudeste 0 982.4 0.8 28
2019-08-23 11:00:00 28.2 24 Este 40 Este 0 982.3 1.1 32
2019-08-23 10:00:00 25.8 17 Este 39 Este 0 982 1.4 31
2019-08-23 09:00:00 24.5 18 Este 31 Este 0 981.6 1.2 27
2019-08-23 08:00:00 23.3 17 Este 36 Este 0 981.2 1 26
2019-08-23 07:00:00 24 14 Este 26 Este 0 980.6 0.7 24
2019-08-23 06:00:00 24.5 12 Este 21 Este 0 980.4 0.5 22
2019-08-23 05:00:00 23 10 Este 15 Nordeste 0 980.2 0.1 30
2019-08-23 04:00:00 23.6 9 Este 15 Este 0 979.9 -0.1 30
2019-08-23 03:00:00 23.9 4 Este 9 Sudeste 0 979.9 0 39
2019-08-23 02:00:00 24.7 0 Calma 11 Este 0 980.1 0.3 38
2019-08-23 01:00:00 26.3 3 Sudoeste 19 Nordeste 0 980 0.5 38
2019-08-23 00:00:00 29.2 6 Sudeste 20 Nordeste 0 979.9 0.4 28